ADDS TAF Data INFO
IDs: Format: Raw Decoded Include METARs

Data at: 0351 UTC 17 Jul 2018

KHOB 170335Z AUTO 13006KT 10SM SCT095 27/11 A3012 RMK AO2

KHOB 162320Z 1700/1724 14011KT P6SM FEW100